Time,TemperatureF,DewpointF,PressureIn,WindDirection,WindDirectionDegrees,WindSpeedMPH,WindSpeedGustMPH,Humidity,HourlyPrecipIn,Conditions,Clouds,dailyrainin,SoftwareType,DateUTC
2013-05-13 00:00:00,42.8,39.5,30.01,North,-999,0.0,-999.0,88,-99.99,,,-99.99,Acu-Link.com,2013-05-13 05:00:00,
2013-05-13 00:16:00,44.6,40.7,30.01,North,-999,0.0,-999.0,86,-99.99,,,-99.99,Acu-Link.com,2013-05-13 05:16:00,
2013-05-13 00:31:00,45.4,40.2,30.01,North,-999,0.0,-999.0,82,-99.99,,,-99.99,Acu-Link.com,2013-05-13 05:31:00,
2013-05-13 00:46:00,47.6,39.4,30.01,North,-999,0.0,-999.0,73,-99.99,,,-99.99,Acu-Link.com,2013-05-13 05:46:00,
2013-05-13 01:02:00,46.7,39.9,30.01,North,-999,0.0,-999.0,77,-99.99,,,-99.99,Acu-Link.com,2013-05-13 06:02:00,
2013-05-13 01:17:00,46.2,41.0,30.01,North,-999,0.0,-999.0,82,-99.99,,,-99.99,Acu-Link.com,2013-05-13 06:17:00,
2013-05-13 01:32:00,45.4,42.1,30.00,North,-999,0.0,-999.0,88,-99.99,,,-99.99,Acu-Link.com,2013-05-13 06:32:00,
2013-05-13 01:47:00,47.2,41.7,30.00,North,-999,0.0,-999.0,81,-99.99,,,-99.99,Acu-Link.com,2013-05-13 06:47:00,
2013-05-13 02:03:00,47.8,41.3,30.00,North,-999,0.0,-999.0,78,-99.99,,,-99.99,Acu-Link.com,2013-05-13 07:03:00,
2013-05-13 02:18:00,48.2,41.3,30.00,North,-999,0.0,-999.0,77,-99.99,,,-99.99,Acu-Link.com,2013-05-13 07:18:00,
2013-05-13 02:33:00,48.4,41.9,30.00,North,-999,0.0,-999.0,78,-99.99,,,-99.99,Acu-Link.com,2013-05-13 07:33:00,
2013-05-13 02:49:00,48.7,42.2,30.00,North,-999,0.0,-999.0,78,-99.99,,,-99.99,Acu-Link.com,2013-05-13 07:49:00,
2013-05-13 03:04:00,49.5,42.3,30.00,North,-999,0.0,-999.0,76,-99.99,,,-99.99,Acu-Link.com,2013-05-13 08:04:00,
2013-05-13 03:19:00,49.1,42.2,30.00,North,-999,0.0,-999.0,77,-99.99,,,-99.99,Acu-Link.com,2013-05-13 08:19:00,
2013-05-13 03:35:00,49.2,42.3,29.99,North,-999,1.6,-999.0,77,-99.99,,,-99.99,Acu-Link.com,2013-05-13 08:35:00,
2013-05-13 03:50:00,49.4,43.2,29.98,North,-999,1.6,-999.0,79,-99.99,,,-99.99,Acu-Link.com,2013-05-13 08:50:00,
2013-05-13 04:05:00,49.1,42.5,29.98,North,-999,1.6,-999.0,78,-99.99,,,-99.99,Acu-Link.com,2013-05-13 09:05:00,
2013-05-13 04:20:00,47.8,42.6,29.98,North,-999,0.0,-999.0,82,-99.99,,,-99.99,Acu-Link.com,2013-05-13 09:20:00,
2013-05-13 04:35:00,45.7,42.4,29.98,North,-999,0.0,-999.0,88,-99.99,,,-99.99,Acu-Link.com,2013-05-13 09:35:00,
2013-05-13 04:51:00,48.7,43.5,29.98,North,-999,3.2,-999.0,82,-99.99,,,-99.99,Acu-Link.com,2013-05-13 09:51:00,
2013-05-13 05:06:00,48.0,43.1,29.98,North,-999,0.0,-999.0,83,-99.99,,,-99.99,Acu-Link.com,2013-05-13 10:06:00,
2013-05-13 05:21:00,46.9,42.6,29.97,North,-999,0.0,-999.0,85,-99.99,,,-99.99,Acu-Link.com,2013-05-13 10:21:00,
2013-05-13 05:37:00,43.6,41.1,29.96,North,-999,0.0,-999.0,91,-99.99,,,-99.99,Acu-Link.com,2013-05-13 10:37:00,
2013-05-13 05:52:00,42.9,41.6,29.96,North,-999,0.0,-999.0,95,-99.99,,,-99.99,Acu-Link.com,2013-05-13 10:52:00,
2013-05-13 06:08:00,44.3,42.4,29.96,North,-999,0.0,-999.0,93,-99.99,,,-99.99,Acu-Link.com,2013-05-13 11:08:00,
2013-05-13 06:23:00,43.5,41.9,29.98,North,-999,0.0,-999.0,94,-99.99,,,-99.99,Acu-Link.com,2013-05-13 11:23:00,
2013-05-13 06:38:00,44.3,43.2,29.98,North,-999,0.0,-999.0,96,-99.99,,,-99.99,Acu-Link.com,2013-05-13 11:38:00,
2013-05-13 06:53:00,51.6,46.9,29.99,North,-999,0.0,-999.0,84,-99.99,,,-99.99,Acu-Link.com,2013-05-13 11:53:00,
2013-05-13 07:09:00,53.3,47.0,29.98,North,-999,0.0,-999.0,79,-99.99,,,-99.99,Acu-Link.com,2013-05-13 12:09:00,
2013-05-13 07:24:00,55.4,46.5,29.99,North,-999,1.6,-999.0,72,-99.99,,,-99.99,Acu-Link.com,2013-05-13 12:24:00,
2013-05-13 07:39:00,56.6,46.5,29.98,North,-999,1.6,-999.0,69,-99.99,,,-99.99,Acu-Link.com,2013-05-13 12:39:00,
2013-05-13 07:55:00,57.8,47.3,29.98,North,-999,4.8,-999.0,68,-99.99,,,-99.99,Acu-Link.com,2013-05-13 12:55:00,
2013-05-13 08:10:00,59.6,48.2,29.98,North,-999,3.2,-999.0,66,-99.99,,,-99.99,Acu-Link.com,2013-05-13 13:10:00,
2013-05-13 08:25:00,60.6,49.2,29.98,North,-999,3.2,-999.0,66,-99.99,,,-99.99,Acu-Link.com,2013-05-13 13:25:00,
2013-05-13 08:40:00,62.4,48.3,29.98,North,-999,4.8,-999.0,60,-99.99,,,-99.99,Acu-Link.com,2013-05-13 13:40:00,
2013-05-13 08:55:00,63.1,48.5,29.97,North,-999,4.8,-999.0,59,-99.99,,,-99.99,Acu-Link.com,2013-05-13 13:55:00,
2013-05-13 09:10:00,63.7,47.7,29.97,North,-999,9.6,-999.0,56,-99.99,,,-99.99,Acu-Link.com,2013-05-13 14:10:00,
2013-05-13 09:26:00,65.2,49.1,29.95,North,-999,8.0,-999.0,56,-99.99,,,-99.99,Acu-Link.com,2013-05-13 14:26:00,
2013-05-13 09:41:00,66.7,49.5,29.95,North,-999,4.8,-999.0,54,-99.99,,,-99.99,Acu-Link.com,2013-05-13 14:41:00,
2013-05-13 09:56:00,67.2,49.5,29.95,North,-999,3.2,-999.0,53,-99.99,,,-99.99,Acu-Link.com,2013-05-13 14:56:00,
2013-05-13 10:12:00,67.6,49.3,29.95,North,-999,11.2,-999.0,52,-99.99,,,-99.99,Acu-Link.com,2013-05-13 15:12:00,
2013-05-13 10:27:00,69.4,50.5,29.94,North,-999,3.2,-999.0,51,-99.99,,,-99.99,Acu-Link.com,2013-05-13 15:27:00,
2013-05-13 10:42:00,70.0,51.6,29.94,North,-999,4.8,-999.0,52,-99.99,,,-99.99,Acu-Link.com,2013-05-13 15:42:00,
2013-05-13 10:58:00,71.0,51.4,29.93,North,-999,6.4,-999.0,50,-99.99,,,-99.99,Acu-Link.com,2013-05-13 15:58:00,
2013-05-13 11:13:00,70.5,52.0,29.94,North,-999,6.4,-999.0,52,-99.99,,,-99.99,Acu-Link.com,2013-05-13 16:13:00,
2013-05-13 11:28:00,71.2,51.0,29.93,North,-999,9.6,-999.0,49,-99.99,,,-99.99,Acu-Link.com,2013-05-13 16:28:00,
2013-05-13 11:43:00,73.5,52.0,29.93,North,-999,6.4,-999.0,47,-99.99,,,-99.99,Acu-Link.com,2013-05-13 16:43:00,
2013-05-13 11:59:00,74.4,53.4,29.92,North,-999,8.0,-999.0,48,-99.99,,,-99.99,Acu-Link.com,2013-05-13 16:59:00,
2013-05-13 12:14:00,75.9,53.0,29.92,North,-999,8.0,-999.0,45,-99.99,,,-99.99,Acu-Link.com,2013-05-13 17:14:00,
2013-05-13 12:29:00,77.7,54.6,29.91,North,-999,3.2,-999.0,45,-99.99,,,-99.99,Acu-Link.com,2013-05-13 17:29:00,
2013-05-13 12:44:00,78.1,52.5,29.90,North,-999,9.6,-999.0,41,-99.99,,,-99.99,Acu-Link.com,2013-05-13 17:44:00,
2013-05-13 13:00:00,79.0,53.9,29.89,North,-999,6.4,-999.0,42,-99.99,,,-99.99,Acu-Link.com,2013-05-13 18:00:00,
2013-05-13 13:15:00,79.5,51.6,29.88,North,-999,14.5,-999.0,38,-99.99,,,-99.99,Acu-Link.com,2013-05-13 18:15:00,
2013-05-13 13:31:00,79.3,49.3,29.87,North,-999,14.5,-999.0,35,-99.99,,,-99.99,Acu-Link.com,2013-05-13 18:31:00,
2013-05-13 13:46:00,81.2,51.7,29.87,North,-999,11.2,-999.0,36,-99.99,,,-99.99,Acu-Link.com,2013-05-13 18:46:00,
2013-05-13 14:01:00,81.7,48.1,29.86,North,-999,12.8,-999.0,31,-99.99,,,-99.99,Acu-Link.com,2013-05-13 19:01:00,
2013-05-13 14:16:00,82.5,50.5,29.86,North,-999,11.2,-999.0,33,-99.99,,,-99.99,Acu-Link.com,2013-05-13 19:16:00,
2013-05-13 14:31:00,83.1,48.4,29.86,North,-999,8.0,-999.0,30,-99.99,,,-99.99,Acu-Link.com,2013-05-13 19:31:00,
2013-05-13 14:46:00,83.4,49.6,29.85,North,-999,14.5,-999.0,31,-99.99,,,-99.99,Acu-Link.com,2013-05-13 19:46:00,
2013-05-13 15:02:00,82.9,48.3,29.85,North,-999,14.5,-999.0,30,-99.99,,,-99.99,Acu-Link.com,2013-05-13 20:02:00,
2013-05-13 15:17:00,84.7,49.8,29.84,North,-999,9.6,-999.0,30,-99.99,,,-99.99,Acu-Link.com,2013-05-13 20:17:00,
2013-05-13 15:32:00,84.7,48.0,29.83,North,-999,16.1,-999.0,28,-99.99,,,-99.99,Acu-Link.com,2013-05-13 20:32:00,
2013-05-13 15:47:00,84.2,47.5,29.83,North,-999,11.2,-999.0,28,-99.99,,,-99.99,Acu-Link.com,2013-05-13 20:47:00,
2013-05-13 16:02:00,84.6,48.8,29.82,North,-999,11.2,-999.0,29,-99.99,,,-99.99,Acu-Link.com,2013-05-13 21:02:00,
2013-05-13 16:18:00,84.7,48.0,29.81,North,-999,11.2,-999.0,28,-99.99,,,-99.99,Acu-Link.com,2013-05-13 21:18:00,
2013-05-13 16:33:00,84.7,47.0,29.81,North,-999,16.1,-999.0,27,-99.99,,,-99.99,Acu-Link.com,2013-05-13 21:33:00,
2013-05-13 16:48:00,85.3,49.4,29.80,North,-999,19.3,-999.0,29,-99.99,,,-99.99,Acu-Link.com,2013-05-13 21:48:00,
2013-05-13 17:04:00,84.0,48.3,29.79,North,-999,16.1,-999.0,29,-99.99,,,-99.99,Acu-Link.com,2013-05-13 22:04:00,
2013-05-13 17:19:00,84.1,51.0,29.79,North,-999,8.0,-999.0,32,-99.99,,,-99.99,Acu-Link.com,2013-05-13 22:19:00,
2013-05-13 17:34:00,84.1,51.0,29.79,North,-999,6.4,-999.0,32,-99.99,,,-99.99,Acu-Link.com,2013-05-13 22:34:00,
2013-05-13 17:49:00,83.5,51.3,29.79,North,-999,14.5,-999.0,33,-99.99,,,-99.99,Acu-Link.com,2013-05-13 22:49:00,
2013-05-13 18:05:00,82.9,51.6,29.79,North,-999,12.8,-999.0,34,-99.99,,,-99.99,Acu-Link.com,2013-05-13 23:05:00,
2013-05-13 18:20:00,82.6,52.1,29.78,North,-999,11.2,-999.0,35,-99.99,,,-99.99,Acu-Link.com,2013-05-13 23:20:00,
2013-05-13 18:35:00,82.3,53.4,29.77,North,-999,0.0,-999.0,37,-99.99,,,-99.99,Acu-Link.com,2013-05-13 23:35:00,
2013-05-13 18:51:00,81.7,52.1,29.77,North,-999,9.6,-999.0,36,-99.99,,,-99.99,Acu-Link.com,2013-05-13 23:51:00,
2013-05-13 19:06:00,81.0,51.5,29.77,North,-999,9.6,-999.0,36,-99.99,,,-99.99,Acu-Link.com,2013-05-14 00:06:00,
2013-05-13 19:21:00,80.2,53.0,29.76,North,-999,0.0,-999.0,39,-99.99,,,-99.99,Acu-Link.com,2013-05-14 00:21:00,
2013-05-13 19:36:00,78.7,53.0,29.76,North,-999,1.6,-999.0,41,-99.99,,,-99.99,Acu-Link.com,2013-05-14 00:36:00,
2013-05-13 19:52:00,77.5,53.2,29.76,North,-999,4.8,-999.0,43,-99.99,,,-99.99,Acu-Link.com,2013-05-14 00:52:00,
2013-05-13 20:07:00,76.4,53.5,29.76,North,-999,4.8,-999.0,45,-99.99,,,-99.99,Acu-Link.com,2013-05-14 01:07:00,
2013-05-13 20:22:00,75.5,53.8,29.76,North,-999,3.2,-999.0,47,-99.99,,,-99.99,Acu-Link.com,2013-05-14 01:22:00,
2013-05-13 20:37:00,75.1,54.1,29.76,North,-999,3.2,-999.0,48,-99.99,,,-99.99,Acu-Link.com,2013-05-14 01:37:00,
2013-05-13 20:52:00,74.0,54.2,29.76,North,-999,3.2,-999.0,50,-99.99,,,-99.99,Acu-Link.com,2013-05-14 01:52:00,
2013-05-13 21:08:00,73.5,54.8,29.76,North,-999,3.2,-999.0,52,-99.99,,,-99.99,Acu-Link.com,2013-05-14 02:08:00,
2013-05-13 21:23:00,72.6,55.0,29.76,North,-999,4.8,-999.0,54,-99.99,,,-99.99,Acu-Link.com,2013-05-14 02:23:00,
2013-05-13 21:38:00,72.5,55.4,29.76,North,-999,4.8,-999.0,55,-99.99,,,-99.99,Acu-Link.com,2013-05-14 02:38:00,
2013-05-13 21:54:00,71.6,55.5,29.77,North,-999,6.4,-999.0,57,-99.99,,,-99.99,Acu-Link.com,2013-05-14 02:54:00,
2013-05-13 22:09:00,71.6,56.0,29.77,North,-999,4.8,-999.0,58,-99.99,,,-99.99,Acu-Link.com,2013-05-14 03:09:00,
2013-05-13 22:24:00,70.8,56.2,29.77,North,-999,1.6,-999.0,60,-99.99,,,-99.99,Acu-Link.com,2013-05-14 03:24:00,
2013-05-13 22:40:00,70.1,56.0,29.77,North,-999,3.2,-999.0,61,-99.99,,,-99.99,Acu-Link.com,2013-05-14 03:40:00,
2013-05-13 22:55:00,69.4,56.2,29.77,North,-999,4.8,-999.0,63,-99.99,,,-99.99,Acu-Link.com,2013-05-14 03:55:00,
2013-05-13 23:10:00,69.2,56.9,29.77,North,-999,1.6,-999.0,65,-99.99,,,-99.99,Acu-Link.com,2013-05-14 04:10:00,
2013-05-13 23:25:00,69.1,56.8,29.76,North,-999,3.2,-999.0,65,-99.99,,,-99.99,Acu-Link.com,2013-05-14 04:25:00,
2013-05-13 23:40:00,68.2,57.2,29.77,North,-999,4.8,-999.0,68,-99.99,,,-99.99,Acu-Link.com,2013-05-14 04:40:00,
2013-05-13 23:56:00,67.6,57.1,29.77,North,-999,0.0,-999.0,69,-99.99,,,-99.99,Acu-Link.com,2013-05-14 04:56:00,